createdAt,value
2019-02-28T00:01:37.931Z,7.50
2019-02-28T00:04:06.972Z,7.60
2019-02-28T00:06:35.651Z,7.50
2019-02-28T00:09:08.411Z,7.40
2019-02-28T00:11:39.490Z,7.30
2019-02-28T00:14:07.772Z,7.20
2019-02-28T00:16:36.448Z,7.10
2019-02-28T00:19:05.249Z,7.20
2019-02-28T00:21:34.128Z,7.20
2019-02-28T00:24:02.764Z,7.10
2019-02-28T00:26:31.402Z,7.00
2019-02-28T00:29:01.158Z,7.00
2019-02-28T00:31:30.307Z,7.10
2019-02-28T00:33:58.942Z,7.00
2019-02-28T00:36:27.885Z,7.00
2019-02-28T00:38:56.542Z,7.00
2019-02-28T00:41:25.191Z,7.10
2019-02-28T00:43:56.867Z,7.00
2019-02-28T00:46:24.599Z,7.20
2019-02-28T00:48:54.184Z,7.20
2019-02-28T00:51:22.950Z,7.30
2019-02-28T00:53:51.849Z,7.50
2019-02-28T00:56:20.756Z,7.80
2019-02-28T00:58:49.400Z,8.10
2019-02-28T01:01:18.127Z,8.10
2019-02-28T01:03:47.134Z,8.10
2019-02-28T01:06:16.415Z,8.20
2019-02-28T01:08:45.065Z,8.30
2019-02-28T01:11:14.103Z,8.10
2019-02-28T01:13:42.755Z,8.00
2019-02-28T01:16:11.530Z,8.00
2019-02-28T01:18:40.418Z,8.10
2019-02-28T01:21:09.480Z,8.20
2019-02-28T01:23:38.582Z,8.20
2019-02-28T01:26:07.313Z,8.20
2019-02-28T01:28:36.571Z,8.20
2019-02-28T01:31:05.809Z,8.30
2019-02-28T01:33:34.711Z,8.40
2019-02-28T01:36:03.399Z,8.40
2019-02-28T01:38:32.483Z,8.50
2019-02-28T01:41:01.162Z,8.50
2019-02-28T01:43:30.103Z,8.50
2019-02-28T01:45:59.018Z,8.80
2019-02-28T01:48:27.922Z,8.80
2019-02-28T01:51:00.758Z,8.90
2019-02-28T01:53:28.135Z,9.00
2019-02-28T01:55:56.795Z,9.00
2019-02-28T01:58:25.427Z,9.10
2019-02-28T02:00:57.331Z,9.30
2019-02-28T02:03:24.455Z,9.40
2019-02-28T02:05:54.019Z,9.30
2019-02-28T02:08:22.687Z,9.30
2019-02-28T02:10:54.977Z,9.20
2019-02-28T02:13:22.256Z,9.30
2019-02-28T02:15:51.984Z,9.40
2019-02-28T02:18:20.763Z,9.30
2019-02-28T02:20:49.415Z,9.20
2019-02-28T02:23:18.917Z,9.20
2019-02-28T02:25:47.663Z,9.20
2019-02-28T02:28:16.343Z,9.20
2019-02-28T02:30:50.581Z,9.10
2019-02-28T02:33:15.735Z,9.10
2019-02-28T02:35:44.773Z,9.00
2019-02-28T02:38:13.431Z,8.90
2019-02-28T02:40:42.457Z,8.90
2019-02-28T02:43:11.123Z,9.00
2019-02-28T02:45:43.372Z,8.90
2019-02-28T02:48:10.740Z,8.80
2019-02-28T02:50:39.398Z,8.80
2019-02-28T02:53:08.397Z,8.70
2019-02-28T02:55:37.030Z,8.70
2019-02-28T02:58:05.689Z,8.60
2019-02-28T03:00:34.403Z,8.50
2019-02-28T03:03:06.101Z,8.40
2019-02-28T03:05:35.942Z,8.50
2019-02-28T03:08:03.815Z,8.50
2019-02-28T03:10:32.531Z,8.50
2019-02-28T03:13:04.796Z,8.50
2019-02-28T03:15:31.521Z,8.50
2019-02-28T03:18:00.199Z,8.40
2019-02-28T03:20:28.869Z,8.30
2019-02-28T03:23:02.221Z,8.30
2019-02-28T03:25:28.945Z,8.30
2019-02-28T03:27:57.761Z,8.30
2019-02-28T03:30:30.835Z,8.30
2019-02-28T03:32:57.231Z,8.20
2019-02-28T03:35:39.973Z,8.10
2019-02-28T03:37:57.753Z,8.20
2019-02-28T03:40:26.395Z,8.10
2019-02-28T03:42:55.056Z,8.20
2019-02-28T03:45:24.034Z,8.10
2019-02-28T03:47:58.517Z,8.00
2019-02-28T03:50:23.165Z,8.00
2019-02-28T03:52:52.606Z,8.00
2019-02-28T03:55:21.262Z,8.00
2019-02-28T03:57:50.042Z,8.00
2019-02-28T04:00:19.276Z,8.00
2019-02-28T04:02:47.965Z,8.00
2019-02-28T04:05:16.767Z,7.90
2019-02-28T04:07:52.260Z,7.80
2019-02-28T04:10:16.802Z,7.90
2019-02-28T04:12:47.156Z,8.00
2019-02-28T04:15:16.147Z,7.80
2019-02-28T04:17:44.810Z,7.80
2019-02-28T04:20:13.668Z,7.80
2019-02-28T04:22:42.433Z,7.80
2019-02-28T04:25:11.290Z,7.80
2019-02-28T04:27:41.595Z,7.90
2019-02-28T04:30:10.371Z,7.80
2019-02-28T04:32:39.108Z,7.90
2019-02-28T04:35:08.379Z,7.80
2019-02-28T04:37:37.065Z,7.80
2019-02-28T04:40:06.518Z,7.70
2019-02-28T04:42:36.614Z,7.70
2019-02-28T04:45:06.997Z,7.70
2019-02-28T04:47:37.221Z,7.70
2019-02-28T04:50:06.592Z,7.70
2019-02-28T04:52:35.659Z,7.60
2019-02-28T04:55:05.217Z,7.70
2019-02-28T04:57:33.880Z,7.70
2019-02-28T05:00:05.807Z,7.70
2019-02-28T05:02:33.472Z,7.60
2019-02-28T05:05:02.463Z,7.60
2019-02-28T05:07:31.120Z,7.60
2019-02-28T05:09:59.757Z,7.60
2019-02-28T05:12:28.750Z,7.60
2019-02-28T05:14:58.408Z,7.40
2019-02-28T05:17:28.370Z,7.40
2019-02-28T05:19:57.357Z,7.50
2019-02-28T05:22:27.590Z,7.40
2019-02-28T05:24:56.727Z,7.40
2019-02-28T05:27:25.397Z,7.30
2019-02-28T05:29:54.335Z,7.30
2019-02-28T05:32:23.235Z,7.30
2019-02-28T05:34:51.964Z,7.20
2019-02-28T05:37:21.181Z,7.30
2019-02-28T05:39:49.862Z,7.30
2019-02-28T05:42:20.321Z,7.30
2019-02-28T05:44:48.912Z,7.30
2019-02-28T05:47:18.019Z,7.20
2019-02-28T05:49:47.031Z,7.10
2019-02-28T05:52:15.670Z,7.20
2019-02-28T05:54:47.203Z,7.20
2019-02-28T05:57:15.279Z,7.20
2019-02-28T05:59:43.985Z,7.20
2019-02-28T06:02:12.686Z,7.10
2019-02-28T06:04:41.413Z,7.20
2019-02-28T06:07:10.092Z,7.20
2019-02-28T06:09:38.750Z,7.20
2019-02-28T06:12:09.561Z,7.20
2019-02-28T06:14:38.554Z,7.10
2019-02-28T06:17:07.240Z,7.10
2019-02-28T06:19:35.907Z,7.10
2019-02-28T06:22:04.871Z,7.30
2019-02-28T06:24:33.523Z,7.70
2019-02-28T06:27:03.637Z,8.00
2019-02-28T06:29:32.681Z,8.40
2019-02-28T06:32:01.397Z,8.60
2019-02-28T06:34:30.226Z,8.80
2019-02-28T06:37:00.391Z,8.90
2019-02-28T06:39:29.308Z,9.10
2019-02-28T06:41:58.350Z,9.40
2019-02-28T06:44:27.745Z,9.60
2019-02-28T06:46:56.478Z,9.90
2019-02-28T06:49:25.149Z,9.90
2019-02-28T06:51:53.826Z,9.90
2019-02-28T06:54:22.521Z,9.80
2019-02-28T06:56:54.133Z,10.00
2019-02-28T06:59:21.883Z,10.40
2019-02-28T07:01:56.622Z,10.50
2019-02-28T07:04:21.235Z,10.40
2019-02-28T07:06:49.912Z,10.70
2019-02-28T07:09:18.577Z,10.80
2019-02-28T07:11:47.484Z,10.80
2019-02-28T07:14:16.707Z,11.10
2019-02-28T07:16:45.850Z,11.20
2019-02-28T07:19:14.900Z,11.20
2019-02-28T07:21:44.348Z,11.40
2019-02-28T07:24:13.599Z,11.30
2019-02-28T07:26:42.303Z,11.60
2019-02-28T07:29:12.067Z,11.80
2019-02-28T07:31:40.884Z,11.90
2019-02-28T07:34:09.907Z,12.10
2019-02-28T07:36:41.484Z,12.00
2019-02-28T07:39:09.501Z,11.70
2019-02-28T07:41:38.161Z,11.80
2019-02-28T07:44:06.809Z,11.80
2019-02-28T07:46:38.534Z,12.40
2019-02-28T07:49:06.472Z,12.20
2019-02-28T07:51:35.417Z,12.60
2019-02-28T07:54:04.491Z,12.70
2019-02-28T07:56:33.210Z,12.80
2019-02-28T07:59:05.255Z,12.70
2019-02-28T08:01:32.299Z,12.20
2019-02-28T08:04:00.995Z,12.80
2019-02-28T08:06:29.709Z,13.40
2019-02-28T08:08:58.502Z,13.30
2019-02-28T08:11:27.235Z,13.60
2019-02-28T08:13:56.160Z,13.60
2019-02-28T08:16:25.130Z,13.40
2019-02-28T08:18:53.795Z,13.50
2019-02-28T08:21:22.463Z,13.50
2019-02-28T08:23:51.108Z,13.80
2019-02-28T08:26:20.023Z,14.00
2019-02-28T08:28:48.733Z,13.70
2019-02-28T08:31:17.432Z,13.50
2019-02-28T08:33:48.132Z,13.50
2019-02-28T08:36:17.905Z,13.70
2019-02-28T08:38:46.667Z,13.70
2019-02-28T08:41:15.363Z,13.50
2019-02-28T08:43:44.625Z,13.90
2019-02-28T08:46:15.132Z,14.60
2019-02-28T08:48:44.035Z,14.20
2019-02-28T08:51:13.519Z,14.40
2019-02-28T08:53:42.430Z,14.10
2019-02-28T08:56:14.917Z,13.80
2019-02-28T08:58:46.119Z,14.30
2019-02-28T09:01:14.790Z,14.50
2019-02-28T09:03:46.598Z,14.90
2019-02-28T09:06:15.377Z,15.30
2019-02-28T09:08:44.363Z,14.90
2019-02-28T09:11:13.525Z,15.20
2019-02-28T09:13:42.972Z,14.90
2019-02-28T09:16:12.555Z,15.10
2019-02-28T09:18:41.570Z,14.90
2019-02-28T09:21:10.644Z,15.10
2019-02-28T09:23:39.647Z,15.00
2019-02-28T09:26:08.410Z,15.00
2019-02-28T09:28:37.087Z,14.50
2019-02-28T09:31:06.027Z,14.70
2019-02-28T09:33:34.755Z,14.30
2019-02-28T09:36:03.459Z,14.70
2019-02-28T09:38:32.127Z,14.80
2019-02-28T09:41:01.364Z,14.40
2019-02-28T09:43:33.236Z,14.10
2019-02-28T09:46:01.980Z,14.30
2019-02-28T09:48:33.881Z,13.90
2019-02-28T09:51:01.375Z,13.80
2019-02-28T09:53:30.115Z,13.80
2019-02-28T09:55:59.119Z,14.20
2019-02-28T09:58:29.248Z,14.20
2019-02-28T10:00:58.166Z,14.50
2019-02-28T10:03:26.987Z,14.40
2019-02-28T10:05:55.646Z,14.30
2019-02-28T10:08:24.307Z,14.70
2019-02-28T10:10:55.928Z,15.10
2019-02-28T10:13:23.412Z,15.50
2019-02-28T10:15:52.076Z,15.30
2019-02-28T10:18:20.730Z,15.10
2019-02-28T10:20:49.548Z,14.70
2019-02-28T10:23:21.195Z,14.90
2019-02-28T10:25:48.734Z,14.70
2019-02-28T10:28:17.378Z,14.90
2019-02-28T10:30:47.260Z,15.20
2019-02-28T10:33:17.379Z,15.20
2019-02-28T10:35:46.786Z,14.80
2019-02-28T10:38:15.411Z,14.70
2019-02-28T10:40:52.482Z,15.00
2019-02-28T10:43:21.354Z,15.60
2019-02-28T10:45:50.006Z,16.10
2019-02-28T10:48:19.039Z,16.40
2019-02-28T10:50:48.037Z,16.70
2019-02-28T10:53:16.692Z,16.80
2019-02-28T10:55:45.724Z,16.50
2019-02-28T10:58:15.523Z,15.60
2019-02-28T11:00:45.179Z,15.60
2019-02-28T11:03:13.995Z,15.50
2019-02-28T11:05:43.038Z,15.10
2019-02-28T11:08:14.860Z,15.00
2019-02-28T11:10:45.593Z,15.10
2019-02-28T11:13:16.104Z,15.20
2019-02-28T11:15:47.934Z,15.30
2019-02-28T11:18:15.663Z,15.30
2019-02-28T11:20:44.372Z,15.10
2019-02-28T11:23:14.779Z,14.70
2019-02-28T11:25:44.128Z,15.30
2019-02-28T11:28:13.568Z,15.00
2019-02-28T11:30:44.632Z,14.70
2019-02-28T11:33:13.302Z,14.70
2019-02-28T11:35:42.052Z,15.10
2019-02-28T11:38:11.537Z,15.00
2019-02-28T11:40:43.615Z,15.20
2019-02-28T11:43:11.317Z,15.20
2019-02-28T11:45:40.368Z,15.00
2019-02-28T11:48:09.315Z,15.00
2019-02-28T11:50:41.339Z,14.80
2019-02-28T11:53:09.244Z,14.50
2019-02-28T11:55:38.480Z,14.30
2019-02-28T11:58:07.172Z,14.30
2019-02-28T12:00:36.765Z,14.50
2019-02-28T12:03:05.994Z,14.80
2019-02-28T12:05:34.943Z,14.90
2019-02-28T12:08:09.344Z,14.40
2019-02-28T12:10:34.402Z,13.90
2019-02-28T12:13:03.142Z,13.60
2019-02-28T12:15:31.876Z,13.80
2019-02-28T12:18:03.513Z,13.60
2019-02-28T12:20:30.932Z,13.40
2019-02-28T12:22:59.610Z,13.80
2019-02-28T12:25:28.411Z,13.70
2019-02-28T12:27:59.410Z,13.70
2019-02-28T12:30:27.865Z,13.60
2019-02-28T12:32:56.878Z,13.70
2019-02-28T12:35:25.599Z,13.80
2019-02-28T12:37:55.056Z,13.80
2019-02-28T12:40:25.736Z,13.50
2019-02-28T12:42:54.415Z,13.60
2019-02-28T12:45:31.964Z,14.00
2019-02-28T12:48:00.974Z,13.90
2019-02-28T12:50:30.416Z,13.90
2019-02-28T12:52:59.280Z,14.10
2019-02-28T12:55:27.999Z,14.40
2019-02-28T12:57:57.734Z,14.10
2019-02-28T13:00:29.928Z,13.70
2019-02-28T13:02:58.567Z,13.70
2019-02-28T13:05:27.314Z,13.60
2019-02-28T13:07:56.215Z,13.60
2019-02-28T13:10:28.025Z,13.30
2019-02-28T13:13:05.520Z,13.20
2019-02-28T13:15:25.872Z,13.10
2019-02-28T13:17:54.607Z,13.30
2019-02-28T13:20:23.707Z,13.50
2019-02-28T13:22:55.561Z,13.80
2019-02-28T13:25:23.363Z,13.70
2019-02-28T13:27:53.219Z,13.50
2019-02-28T13:30:23.120Z,13.70
2019-02-28T13:32:51.842Z,14.00
2019-02-28T13:35:26.295Z,14.00
2019-02-28T13:37:55.174Z,13.80
2019-02-28T13:40:24.235Z,13.50
2019-02-28T13:42:52.921Z,13.30
2019-02-28T13:45:23.709Z,13.40
2019-02-28T13:47:52.782Z,13.40
2019-02-28T13:50:25.823Z,13.50
2019-02-28T13:52:53.712Z,13.50
2019-02-28T13:55:29.101Z,13.40
2019-02-28T13:57:58.022Z,13.10
2019-02-28T14:00:29.193Z,12.90
2019-02-28T14:03:08.895Z,12.90
2019-02-28T14:05:38.771Z,12.90
2019-02-28T14:08:09.804Z,12.70
2019-02-28T14:10:35.004Z,12.70
2019-02-28T14:13:04.419Z,12.60
2019-02-28T14:15:43.078Z,12.70
2019-02-28T14:18:12.355Z,12.50
2019-02-28T14:20:41.438Z,12.50
2019-02-28T14:23:10.194Z,12.40
2019-02-28T14:25:39.959Z,12.40
2019-02-28T14:28:09.544Z,12.50
2019-02-28T14:30:38.263Z,12.50
2019-02-28T14:33:07.292Z,12.40
2019-02-28T14:35:38.422Z,12.30
2019-02-28T14:38:06.657Z,12.40
2019-02-28T14:40:35.381Z,12.50
2019-02-28T14:43:09.808Z,12.40
2019-02-28T14:45:42.868Z,12.40
2019-02-28T14:48:09.778Z,12.40
2019-02-28T14:50:38.511Z,12.20
2019-02-28T14:53:07.395Z,12.10
2019-02-28T14:55:37.539Z,12.00
2019-02-28T14:58:06.600Z,12.00
2019-02-28T15:00:35.651Z,12.10
2019-02-28T15:03:04.584Z,12.10
2019-02-28T15:05:33.782Z,11.90
2019-02-28T15:08:03.084Z,11.80
2019-02-28T15:10:34.121Z,11.70
2019-02-28T15:13:04.659Z,11.60
2019-02-28T15:15:32.884Z,11.50
2019-02-28T15:18:01.583Z,11.50
2019-02-28T15:20:32.808Z,11.40
2019-02-28T15:23:00.805Z,11.40
2019-02-28T15:25:29.643Z,11.30
2019-02-28T15:27:58.427Z,11.20
2019-02-28T15:30:30.505Z,11.10
2019-02-28T15:33:00.225Z,11.00
2019-02-28T15:35:29.026Z,11.00
2019-02-28T15:37:57.836Z,10.90
2019-02-28T15:40:29.092Z,10.90
2019-02-28T15:42:57.842Z,10.80
2019-02-28T15:45:28.541Z,10.70
2019-02-28T15:47:58.999Z,10.60
2019-02-28T15:50:28.070Z,10.50
2019-02-28T15:52:57.405Z,10.40
2019-02-28T15:55:26.926Z,10.30
2019-02-28T15:57:55.711Z,10.10
2019-02-28T16:00:28.442Z,10.00
2019-02-28T16:02:57.726Z,10.00
2019-02-28T16:05:26.460Z,9.90
2019-02-28T16:07:55.791Z,9.80
2019-02-28T16:10:28.611Z,9.70
2019-02-28T16:12:56.897Z,9.70
2019-02-28T16:15:25.791Z,9.60
2019-02-28T16:17:54.567Z,9.40
2019-02-28T16:20:25.018Z,9.40
2019-02-28T16:22:55.572Z,9.30
2019-02-28T16:25:26.888Z,9.20
2019-02-28T16:27:55.694Z,9.10
2019-02-28T16:30:24.459Z,9.00
2019-02-28T16:32:53.183Z,8.90
2019-02-28T16:35:22.239Z,8.80
2019-02-28T16:37:51.650Z,8.80
2019-02-28T16:40:25.985Z,8.80
2019-02-28T16:42:51.213Z,8.70
2019-02-28T16:45:33.658Z,8.60
2019-02-28T16:48:05.766Z,8.50
2019-02-28T16:50:34.551Z,8.40
2019-02-28T16:53:03.696Z,8.30
2019-02-28T16:55:32.654Z,8.30
2019-02-28T16:58:01.519Z,8.20
2019-02-28T17:00:30.315Z,8.10
2019-02-28T17:02:58.994Z,8.00
2019-02-28T17:05:28.395Z,7.90
2019-02-28T17:07:57.401Z,7.80
2019-02-28T17:10:33.794Z,7.80
2019-02-28T17:13:35.581Z,7.70
2019-02-28T17:16:27.075Z,7.70
2019-02-28T17:18:56.877Z,7.70
2019-02-28T17:21:26.239Z,7.60
2019-02-28T17:23:55.551Z,7.50
2019-02-28T17:26:42.149Z,7.50
2019-02-28T17:29:25.124Z,7.40
2019-02-28T17:31:54.251Z,7.40
2019-02-28T17:34:24.335Z,7.20
2019-02-28T17:36:53.361Z,7.20
2019-02-28T17:39:22.133Z,7.10
2019-02-28T17:41:51.120Z,7.10
2019-02-28T17:44:50.083Z,7.00
2019-02-28T17:47:29.786Z,6.90
2019-02-28T17:50:42.769Z,7.00
2019-02-28T17:53:49.525Z,6.90
2019-02-28T17:56:59.142Z,6.80
2019-02-28T18:00:02.196Z,6.70
2019-02-28T18:02:54.250Z,6.60
2019-02-28T18:06:00.402Z,6.50
2019-02-28T18:08:59.086Z,6.50
2019-02-28T18:12:14.882Z,6.40
2019-02-28T18:14:51.532Z,6.40
2019-02-28T18:18:05.441Z,6.40
2019-02-28T18:21:27.061Z,6.30
2019-02-28T18:24:32.117Z,6.20
2019-02-28T18:27:20.393Z,6.20
2019-02-28T18:30:25.219Z,6.10
2019-02-28T18:32:53.929Z,6.00
2019-02-28T18:35:22.737Z,6.00
2019-02-28T18:37:51.498Z,5.90
2019-02-28T18:40:22.667Z,5.90
2019-02-28T18:42:51.528Z,5.90
2019-02-28T18:45:22.446Z,5.80
2019-02-28T18:47:51.658Z,5.80
2019-02-28T18:50:20.509Z,5.80
2019-02-28T18:52:49.321Z,5.90
2019-02-28T18:55:19.052Z,5.80
2019-02-28T18:57:47.896Z,5.80
2019-02-28T19:00:18.904Z,5.70
2019-02-28T19:02:47.679Z,5.70
2019-02-28T19:05:16.409Z,5.70
2019-02-28T19:07:45.088Z,5.60
2019-02-28T19:10:13.893Z,5.60
2019-02-28T19:12:42.649Z,5.60
2019-02-28T19:15:11.515Z,5.50
2019-02-28T19:17:40.230Z,5.40
2019-02-28T19:20:08.969Z,5.40
2019-02-28T19:22:37.628Z,5.40
2019-02-28T19:25:07.083Z,5.30
2019-02-28T19:27:35.823Z,5.30
2019-02-28T19:30:06.264Z,5.30
2019-02-28T19:32:34.895Z,5.30
2019-02-28T19:35:03.676Z,5.50
2019-02-28T19:37:32.459Z,5.50
2019-02-28T19:40:01.562Z,5.50
2019-02-28T19:42:34.058Z,5.50
2019-02-28T19:45:02.835Z,5.40
2019-02-28T19:47:31.483Z,5.40
2019-02-28T19:50:00.475Z,5.50
2019-02-28T19:52:29.472Z,5.60
2019-02-28T19:54:58.194Z,5.60
2019-02-28T19:57:26.875Z,5.70
2019-02-28T19:59:55.549Z,5.80
2019-02-28T20:02:24.384Z,5.80
2019-02-28T20:04:53.521Z,5.90
2019-02-28T20:07:22.220Z,5.90
2019-02-28T20:09:50.980Z,5.90
2019-02-28T20:12:19.807Z,5.90
2019-02-28T20:14:48.603Z,5.90
2019-02-28T20:17:17.775Z,5.90
2019-02-28T20:19:46.568Z,5.90
2019-02-28T20:22:15.381Z,6.00
2019-02-28T20:24:44.521Z,6.00
2019-02-28T20:27:13.806Z,6.00
2019-02-28T20:29:42.544Z,5.90
2019-02-28T20:32:11.661Z,5.90
2019-02-28T20:34:40.342Z,5.90
2019-02-28T20:37:09.030Z,5.90
2019-02-28T20:39:38.427Z,5.90
2019-02-28T20:42:08.371Z,5.90
2019-02-28T20:44:37.038Z,5.90
2019-02-28T20:47:05.739Z,5.90
2019-02-28T20:49:34.854Z,6.00
2019-02-28T20:52:03.529Z,6.00
2019-02-28T20:54:32.596Z,5.90
2019-02-28T20:57:01.697Z,6.00
2019-02-28T20:59:30.493Z,5.90
2019-02-28T21:01:59.200Z,6.00
2019-02-28T21:04:28.312Z,6.00
2019-02-28T21:06:57.594Z,5.90
2019-02-28T21:09:26.585Z,6.00
2019-02-28T21:11:55.546Z,6.00
2019-02-28T21:14:24.572Z,6.00
2019-02-28T21:16:53.398Z,6.00
2019-02-28T21:19:22.120Z,6.00
2019-02-28T21:21:50.921Z,6.00
2019-02-28T21:24:20.225Z,6.00
2019-02-28T21:26:49.420Z,6.00
2019-02-28T21:29:18.277Z,6.10
2019-02-28T21:31:47.248Z,6.10
2019-02-28T21:34:16.082Z,6.20
2019-02-28T21:36:44.988Z,6.10
2019-02-28T21:39:14.151Z,6.20
2019-02-28T21:41:43.005Z,6.10
2019-02-28T21:44:11.826Z,6.10
2019-02-28T21:46:40.828Z,6.10
2019-02-28T21:49:09.853Z,6.10
2019-02-28T21:51:38.995Z,6.20
2019-02-28T21:56:48.772Z,6.10
2019-02-28T21:59:17.969Z,6.10
2019-02-28T22:01:46.669Z,6.20
2019-02-28T22:04:15.407Z,6.20
2019-02-28T22:06:44.215Z,6.20
2019-02-28T22:09:13.123Z,6.20
2019-02-28T22:11:41.904Z,6.30
2019-02-28T22:14:10.586Z,6.30
2019-02-28T22:16:39.378Z,6.30
2019-02-28T22:19:08.046Z,6.20
2019-02-28T22:21:36.802Z,6.30
2019-02-28T22:24:05.533Z,6.30
2019-02-28T22:26:34.296Z,6.20
2019-02-28T22:29:03.240Z,6.20
2019-02-28T22:31:50.115Z,6.20
2019-02-28T22:34:29.515Z,6.20
2019-02-28T22:36:58.473Z,6.20
2019-02-28T22:39:27.161Z,6.10
2019-02-28T22:41:55.856Z,6.20
2019-02-28T22:44:24.590Z,6.20
2019-02-28T22:46:53.354Z,6.20
2019-02-28T22:49:22.101Z,6.20
2019-02-28T22:51:50.890Z,6.20
2019-02-28T22:54:19.959Z,6.20
2019-02-28T22:56:48.677Z,6.20
2019-02-28T22:59:17.429Z,6.20
2019-02-28T23:01:47.278Z,6.20
2019-02-28T23:04:17.001Z,6.20
2019-02-28T23:06:45.823Z,6.20
2019-02-28T23:09:14.546Z,6.20
2019-02-28T23:11:43.608Z,6.20
2019-02-28T23:14:12.341Z,6.20
2019-02-28T23:16:41.157Z,6.20
2019-02-28T23:19:09.867Z,6.10
2019-02-28T23:21:38.626Z,6.20
2019-02-28T23:24:07.362Z,6.20
2019-02-28T23:27:09.879Z,6.20
2019-02-28T23:29:42.837Z,6.10
2019-02-28T23:32:36.694Z,6.10
2019-02-28T23:35:09.792Z,6.10
2019-02-28T23:37:38.500Z,6.10
2019-02-28T23:40:07.495Z,6.10
2019-02-28T23:42:36.372Z,6.10
2019-02-28T23:45:05.620Z,6.10
2019-02-28T23:47:34.463Z,6.10
2019-02-28T23:50:03.691Z,6.10
2019-02-28T23:52:32.871Z,6.00
2019-02-28T23:55:01.632Z,6.00
2019-02-28T23:57:30.946Z,6.00
2019-02-28T23:59:59.610Z,6.00
